sensor_id;sensor_type;location;lat;lon;timestamp;P1;durP1;ratioP1;P2;durP2;ratioP2
71814;SDS011;59659;41.520;23.794;2023-06-14T00:00:25;4.23;;;2.50;;
71814;SDS011;59659;41.520;23.794;2023-06-14T00:01:37;3.23;;;2.33;;
71814;SDS011;59659;41.520;23.794;2023-06-14T00:02:49;2.93;;;1.83;;
71814;SDS011;59659;41.520;23.794;2023-06-14T00:04:01;5.67;;;2.43;;
71814;SDS011;59659;41.520;23.794;2023-06-14T00:05:13;3.80;;;2.37;;
71814;SDS011;59659;41.520;23.794;2023-06-14T00:06:24;2.93;;;2.10;;
71814;SDS011;59659;41.520;23.794;2023-06-14T00:07:37;3.43;;;2.13;;
71814;SDS011;59659;41.520;23.794;2023-06-14T00:08:50;3.77;;;2.50;;
71814;SDS011;59659;41.520;23.794;2023-06-14T00:10:02;4.97;;;1.90;;
71814;SDS011;59659;41.520;23.794;2023-06-14T00:11:14;3.60;;;2.40;;
71814;SDS011;59659;41.520;23.794;2023-06-14T00:12:26;6.87;;;2.77;;
71814;SDS011;59659;41.520;23.794;2023-06-14T00:13:37;3.73;;;2.10;;
71814;SDS011;59659;41.520;23.794;2023-06-14T00:14:49;3.30;;;2.27;;
71814;SDS011;59659;41.520;23.794;2023-06-14T00:16:01;5.17;;;2.90;;
71814;SDS011;59659;41.520;23.794;2023-06-14T00:17:12;3.50;;;2.07;;
71814;SDS011;59659;41.520;23.794;2023-06-14T00:18:27;3.57;;;2.50;;
71814;SDS011;59659;41.520;23.794;2023-06-14T00:19:40;3.20;;;2.23;;
71814;SDS011;59659;41.520;23.794;2023-06-14T00:20:52;3.23;;;2.47;;
71814;SDS011;59659;41.520;23.794;2023-06-14T00:22:04;4.80;;;2.20;;
71814;SDS011;59659;41.520;23.794;2023-06-14T00:23:15;4.17;;;2.53;;
71814;SDS011;59659;41.520;23.794;2023-06-14T00:24:27;4.33;;;2.77;;
71814;SDS011;59659;41.520;23.794;2023-06-14T00:25:39;3.50;;;2.33;;
71814;SDS011;59659;41.520;23.794;2023-06-14T00:26:50;3.90;;;2.67;;
71814;SDS011;59659;41.520;23.794;2023-06-14T00:28:02;3.57;;;2.40;;
71814;SDS011;59659;41.520;23.794;2023-06-14T00:29:14;15.63;;;2.67;;
71814;SDS011;59659;41.520;23.794;2023-06-14T00:30:25;3.60;;;2.30;;
71814;SDS011;59659;41.520;23.794;2023-06-14T00:31:42;3.37;;;2.30;;
71814;SDS011;59659;41.520;23.794;2023-06-14T00:32:53;2.90;;;2.30;;
71814;SDS011;59659;41.520;23.794;2023-06-14T00:34:06;4.47;;;2.33;;
71814;SDS011;59659;41.520;23.794;2023-06-14T00:35:17;5.10;;;2.03;;
71814;SDS011;59659;41.520;23.794;2023-06-14T00:36:29;3.40;;;2.67;;
71814;SDS011;59659;41.520;23.794;2023-06-14T00:37:40;4.63;;;2.90;;
71814;SDS011;59659;41.520;23.794;2023-06-14T00:38:52;4.67;;;2.43;;
71814;SDS011;59659;41.520;23.794;2023-06-14T00:40:04;4.43;;;2.37;;
71814;SDS011;59659;41.520;23.794;2023-06-14T00:41:16;4.40;;;2.43;;
71814;SDS011;59659;41.520;23.794;2023-06-14T00:42:27;5.83;;;2.33;;
71814;SDS011;59659;41.520;23.794;2023-06-14T00:43:39;4.03;;;2.57;;
71814;SDS011;59659;41.520;23.794;2023-06-14T00:44:51;6.43;;;2.37;;
71814;SDS011;59659;41.520;23.794;2023-06-14T00:46:02;4.27;;;2.53;;
71814;SDS011;59659;41.520;23.794;2023-06-14T00:47:14;4.77;;;2.40;;
71814;SDS011;59659;41.520;23.794;2023-06-14T00:48:26;3.50;;;2.40;;
71814;SDS011;59659;41.520;23.794;2023-06-14T00:49:37;2.83;;;1.93;;
71814;SDS011;59659;41.520;23.794;2023-06-14T00:50:49;4.17;;;2.67;;
71814;SDS011;59659;41.520;23.794;2023-06-14T00:52:01;5.07;;;2.67;;
71814;SDS011;59659;41.520;23.794;2023-06-14T00:53:13;2.90;;;1.90;;
71814;SDS011;59659;41.520;23.794;2023-06-14T00:54:26;7.50;;;2.90;;
71814;SDS011;59659;41.520;23.794;2023-06-14T00:55:38;3.77;;;2.00;;
71814;SDS011;59659;41.520;23.794;2023-06-14T00:56:49;4.17;;;2.20;;
71814;SDS011;59659;41.520;23.794;2023-06-14T00:58:01;9.60;;;2.33;;
71814;SDS011;59659;41.520;23.794;2023-06-14T00:59:12;3.57;;;2.33;;
71814;SDS011;59659;41.520;23.794;2023-06-14T01:00:24;4.53;;;2.50;;
71814;SDS011;59659;41.520;23.794;2023-06-14T01:01:35;2.53;;;1.83;;
71814;SDS011;59659;41.520;23.794;2023-06-14T01:02:48;2.90;;;2.13;;
71814;SDS011;59659;41.520;23.794;2023-06-14T01:04:01;3.83;;;2.50;;
71814;SDS011;59659;41.520;23.794;2023-06-14T01:05:12;5.23;;;2.73;;
71814;SDS011;59659;41.520;23.794;2023-06-14T01:09:35;4.13;;;2.10;;
71814;SDS011;59659;41.520;23.794;2023-06-14T01:10:56;3.57;;;2.27;;
71814;SDS011;59659;41.520;23.794;2023-06-14T01:12:31;7.57;;;2.87;;
71814;SDS011;59659;41.520;23.794;2023-06-14T01:13:46;4.27;;;2.17;;
71814;SDS011;59659;41.520;23.794;2023-06-14T01:14:58;3.70;;;2.30;;
71814;SDS011;59659;41.520;23.794;2023-06-14T01:16:10;2.93;;;2.10;;
71814;SDS011;59659;41.520;23.794;2023-06-14T01:17:23;3.20;;;2.03;;
71814;SDS011;59659;41.520;23.794;2023-06-14T01:18:35;3.00;;;2.33;;
71814;SDS011;59659;41.520;23.794;2023-06-14T01:19:46;4.10;;;2.67;;
71814;SDS011;59659;41.520;23.794;2023-06-14T01:20:58;3.50;;;2.47;;
71814;SDS011;59659;41.520;23.794;2023-06-14T01:22:10;4.43;;;2.80;;
71814;SDS011;59659;41.520;23.794;2023-06-14T01:23:22;3.90;;;2.20;;
71814;SDS011;59659;41.520;23.794;2023-06-14T01:24:34;9.27;;;3.30;;
71814;SDS011;59659;41.520;23.794;2023-06-14T01:25:46;4.53;;;2.63;;
71814;SDS011;59659;41.520;23.794;2023-06-14T01:26:58;4.60;;;2.70;;
71814;SDS011;59659;41.520;23.794;2023-06-14T01:28:10;4.37;;;2.40;;
71814;SDS011;59659;41.520;23.794;2023-06-14T01:29:23;4.10;;;2.80;;
71814;SDS011;59659;41.520;23.794;2023-06-14T01:30:37;5.33;;;2.80;;
71814;SDS011;59659;41.520;23.794;2023-06-14T01:31:49;6.07;;;2.63;;
71814;SDS011;59659;41.520;23.794;2023-06-14T01:33:01;6.53;;;2.23;;
71814;SDS011;59659;41.520;23.794;2023-06-14T01:34:13;3.97;;;2.33;;
71814;SDS011;59659;41.520;23.794;2023-06-14T01:35:25;5.80;;;2.67;;
71814;SDS011;59659;41.520;23.794;2023-06-14T01:36:36;5.43;;;2.87;;
71814;SDS011;59659;41.520;23.794;2023-06-14T01:37:52;3.27;;;2.30;;
71814;SDS011;59659;41.520;23.794;2023-06-14T01:39:04;3.67;;;2.40;;
71814;SDS011;59659;41.520;23.794;2023-06-14T01:40:17;4.33;;;2.00;;
71814;SDS011;59659;41.520;23.794;2023-06-14T01:41:29;4.03;;;2.17;;
71814;SDS011;59659;41.520;23.794;2023-06-14T01:42:41;3.33;;;2.50;;
71814;SDS011;59659;41.520;23.794;2023-06-14T01:43:53;4.27;;;2.27;;
71814;SDS011;59659;41.520;23.794;2023-06-14T01:45:06;4.03;;;2.27;;
71814;SDS011;59659;41.520;23.794;2023-06-14T01:46:18;4.53;;;2.87;;
71814;SDS011;59659;41.520;23.794;2023-06-14T01:47:30;6.17;;;2.70;;
71814;SDS011;59659;41.520;23.794;2023-06-14T01:48:42;4.90;;;2.87;;
71814;SDS011;59659;41.520;23.794;2023-06-14T01:49:53;3.67;;;2.50;;
71814;SDS011;59659;41.520;23.794;2023-06-14T01:51:05;4.87;;;2.30;;
71814;SDS011;59659;41.520;23.794;2023-06-14T01:52:17;4.73;;;3.10;;
71814;SDS011;59659;41.520;23.794;2023-06-14T01:53:30;5.37;;;3.23;;
71814;SDS011;59659;41.520;23.794;2023-06-14T01:54:42;5.60;;;2.60;;
71814;SDS011;59659;41.520;23.794;2023-06-14T01:55:53;3.67;;;2.37;;
71814;SDS011;59659;41.520;23.794;2023-06-14T01:57:05;12.23;;;3.87;;
71814;SDS011;59659;41.520;23.794;2023-06-14T01:58:18;5.77;;;2.57;;
71814;SDS011;59659;41.520;23.794;2023-06-14T01:59:30;3.70;;;2.43;;
71814;SDS011;59659;41.520;23.794;2023-06-14T02:00:42;7.47;;;2.67;;
71814;SDS011;59659;41.520;23.794;2023-06-14T02:01:55;4.57;;;2.40;;
71814;SDS011;59659;41.520;23.794;2023-06-14T02:03:06;4.93;;;2.80;;
71814;SDS011;59659;41.520;23.794;2023-06-14T02:04:18;4.23;;;2.60;;
71814;SDS011;59659;41.520;23.794;2023-06-14T02:05:30;3.83;;;2.57;;
71814;SDS011;59659;41.520;23.794;2023-06-14T02:06:41;4.57;;;2.50;;
71814;SDS011;59659;41.520;23.794;2023-06-14T02:07:53;4.17;;;2.33;;
71814;SDS011;59659;41.520;23.794;2023-06-14T02:09:04;4.77;;;2.50;;
71814;SDS011;59659;41.520;23.794;2023-06-14T02:10:16;6.33;;;2.60;;
71814;SDS011;59659;41.520;23.794;2023-06-14T02:11:28;5.70;;;2.93;;
71814;SDS011;59659;41.520;23.794;2023-06-14T02:12:40;3.63;;;2.27;;
71814;SDS011;59659;41.520;23.794;2023-06-14T02:13:52;4.27;;;2.63;;
71814;SDS011;59659;41.520;23.794;2023-06-14T02:15:04;4.63;;;3.03;;
71814;SDS011;59659;41.520;23.794;2023-06-14T02:16:17;3.83;;;2.53;;
71814;SDS011;59659;41.520;23.794;2023-06-14T02:17:28;5.20;;;2.30;;
71814;SDS011;59659;41.520;23.794;2023-06-14T02:18:40;4.73;;;2.47;;
71814;SDS011;59659;41.520;23.794;2023-06-14T02:19:51;4.47;;;2.60;;
71814;SDS011;59659;41.520;23.794;2023-06-14T02:21:03;5.77;;;2.97;;
71814;SDS011;59659;41.520;23.794;2023-06-14T02:22:15;5.37;;;3.13;;
71814;SDS011;59659;41.520;23.794;2023-06-14T02:23:26;3.60;;;2.77;;
71814;SDS011;59659;41.520;23.794;2023-06-14T02:24:38;4.40;;;2.50;;
71814;SDS011;59659;41.520;23.794;2023-06-14T02:25:49;6.37;;;3.23;;
71814;SDS011;59659;41.520;23.794;2023-06-14T02:27:01;6.23;;;3.03;;
71814;SDS011;59659;41.520;23.794;2023-06-14T02:28:13;4.97;;;3.13;;
71814;SDS011;59659;41.520;23.794;2023-06-14T02:29:24;5.57;;;2.97;;
71814;SDS011;59659;41.520;23.794;2023-06-14T02:30:37;6.57;;;3.07;;
71814;SDS011;59659;41.520;23.794;2023-06-14T02:31:48;4.03;;;2.77;;
71814;SDS011;59659;41.520;23.794;2023-06-14T02:33:01;7.03;;;3.17;;
71814;SDS011;59659;41.520;23.794;2023-06-14T02:34:12;7.00;;;2.63;;
71814;SDS011;59659;41.520;23.794;2023-06-14T02:35:24;3.47;;;2.50;;
71814;SDS011;59659;41.520;23.794;2023-06-14T02:36:38;3.90;;;3.00;;
71814;SDS011;59659;41.520;23.794;2023-06-14T02:37:53;4.70;;;3.40;;
71814;SDS011;59659;41.520;23.794;2023-06-14T02:39:04;7.73;;;2.90;;
71814;SDS011;59659;41.520;23.794;2023-06-14T02:40:16;4.37;;;2.67;;
71814;SDS011;59659;41.520;23.794;2023-06-14T02:41:28;5.67;;;3.60;;
71814;SDS011;59659;41.520;23.794;2023-06-14T02:42:39;4.87;;;2.53;;
71814;SDS011;59659;41.520;23.794;2023-06-14T02:43:51;8.63;;;3.57;;
71814;SDS011;59659;41.520;23.794;2023-06-14T02:45:03;6.20;;;3.10;;
71814;SDS011;59659;41.520;23.794;2023-06-14T02:46:15;4.80;;;2.70;;
71814;SDS011;59659;41.520;23.794;2023-06-14T02:47:26;4.60;;;2.90;;
71814;SDS011;59659;41.520;23.794;2023-06-14T02:48:38;4.10;;;2.77;;
71814;SDS011;59659;41.520;23.794;2023-06-14T02:49:50;4.17;;;2.30;;
71814;SDS011;59659;41.520;23.794;2023-06-14T02:51:01;6.93;;;3.40;;
71814;SDS011;59659;41.520;23.794;2023-06-14T02:52:13;3.30;;;2.43;;
71814;SDS011;59659;41.520;23.794;2023-06-14T02:53:24;4.40;;;2.40;;
71814;SDS011;59659;41.520;23.794;2023-06-14T02:54:36;3.90;;;2.83;;
71814;SDS011;59659;41.520;23.794;2023-06-14T02:55:47;5.13;;;3.20;;
71814;SDS011;59659;41.520;23.794;2023-06-14T02:56:59;6.07;;;2.90;;
71814;SDS011;59659;41.520;23.794;2023-06-14T02:58:11;4.30;;;2.63;;
71814;SDS011;59659;41.520;23.794;2023-06-14T02:59:23;5.77;;;2.63;;
71814;SDS011;59659;41.520;23.794;2023-06-14T03:00:36;4.20;;;2.80;;
71814;SDS011;59659;41.520;23.794;2023-06-14T03:01:50;4.70;;;2.80;;
71814;SDS011;59659;41.520;23.794;2023-06-14T03:03:01;5.30;;;3.23;;
71814;SDS011;59659;41.520;23.794;2023-06-14T03:04:13;6.53;;;3.33;;
71814;SDS011;59659;41.520;23.794;2023-06-14T03:05:25;10.60;;;3.67;;
71814;SDS011;59659;41.520;23.794;2023-06-14T03:06:39;5.47;;;3.00;;
71814;SDS011;59659;41.520;23.794;2023-06-14T03:07:51;7.70;;;3.63;;
71814;SDS011;59659;41.520;23.794;2023-06-14T03:09:05;6.27;;;3.93;;
71814;SDS011;59659;41.520;23.794;2023-06-14T03:10:16;4.73;;;3.30;;
71814;SDS011;59659;41.520;23.794;2023-06-14T03:11:28;7.80;;;3.50;;
71814;SDS011;59659;41.520;23.794;2023-06-14T03:12:40;8.40;;;2.87;;
71814;SDS011;59659;41.520;23.794;2023-06-14T03:13:52;8.57;;;3.23;;
71814;SDS011;59659;41.520;23.794;2023-06-14T03:15:03;4.93;;;3.00;;
71814;SDS011;59659;41.520;23.794;2023-06-14T03:16:15;5.13;;;3.17;;
71814;SDS011;59659;41.520;23.794;2023-06-14T03:17:29;4.97;;;3.03;;
71814;SDS011;59659;41.520;23.794;2023-06-14T03:18:44;4.83;;;2.97;;
71814;SDS011;59659;41.520;23.794;2023-06-14T03:19:56;7.50;;;3.20;;
71814;SDS011;59659;41.520;23.794;2023-06-14T03:21:07;4.47;;;3.17;;
71814;SDS011;59659;41.520;23.794;2023-06-14T03:22:20;4.10;;;2.80;;
71814;SDS011;59659;41.520;23.794;2023-06-14T03:23:33;8.27;;;2.73;;
71814;SDS011;59659;41.520;23.794;2023-06-14T03:24:44;4.37;;;2.63;;
71814;SDS011;59659;41.520;23.794;2023-06-14T03:25:56;4.87;;;2.67;;
71814;SDS011;59659;41.520;23.794;2023-06-14T03:27:08;5.70;;;2.70;;
71814;SDS011;59659;41.520;23.794;2023-06-14T03:28:21;8.73;;;3.10;;
71814;SDS011;59659;41.520;23.794;2023-06-14T03:29:33;5.40;;;3.40;;
71814;SDS011;59659;41.520;23.794;2023-06-14T03:30:44;5.63;;;3.33;;
71814;SDS011;59659;41.520;23.794;2023-06-14T03:31:57;8.03;;;4.10;;
71814;SDS011;59659;41.520;23.794;2023-06-14T03:33:09;6.73;;;4.07;;
71814;SDS011;59659;41.520;23.794;2023-06-14T03:34:21;7.40;;;3.63;;
71814;SDS011;59659;41.520;23.794;2023-06-14T03:35:32;7.27;;;3.63;;
71814;SDS011;59659;41.520;23.794;2023-06-14T03:36:44;7.73;;;4.17;;
71814;SDS011;59659;41.520;23.794;2023-06-14T03:37:55;5.57;;;3.43;;
71814;SDS011;59659;41.520;23.794;2023-06-14T03:39:07;9.63;;;4.40;;
71814;SDS011;59659;41.520;23.794;2023-06-14T03:40:19;5.87;;;3.97;;
71814;SDS011;59659;41.520;23.794;2023-06-14T03:41:31;5.77;;;3.57;;
71814;SDS011;59659;41.520;23.794;2023-06-14T03:42:42;6.57;;;3.60;;
71814;SDS011;59659;41.520;23.794;2023-06-14T03:43:54;5.30;;;3.57;;
71814;SDS011;59659;41.520;23.794;2023-06-14T03:45:06;5.57;;;3.67;;
71814;SDS011;59659;41.520;23.794;2023-06-14T03:46:17;4.90;;;3.37;;
71814;SDS011;59659;41.520;23.794;2023-06-14T03:47:29;5.43;;;3.20;;
71814;SDS011;59659;41.520;23.794;2023-06-14T03:48:41;4.03;;;3.17;;
71814;SDS011;59659;41.520;23.794;2023-06-14T03:49:52;6.27;;;3.13;;
71814;SDS011;59659;41.520;23.794;2023-06-14T03:51:04;5.10;;;3.33;;
71814;SDS011;59659;41.520;23.794;2023-06-14T03:52:16;8.17;;;3.53;;
71814;SDS011;59659;41.520;23.794;2023-06-14T03:53:28;6.03;;;3.30;;
71814;SDS011;59659;41.520;23.794;2023-06-14T03:54:41;11.10;;;3.30;;
71814;SDS011;59659;41.520;23.794;2023-06-14T03:56:14;5.13;;;3.30;;
71814;SDS011;59659;41.520;23.794;2023-06-14T03:57:26;5.77;;;2.90;;
71814;SDS011;59659;41.520;23.794;2023-06-14T03:58:37;5.80;;;3.67;;
71814;SDS011;59659;41.520;23.794;2023-06-14T03:59:49;9.13;;;3.67;;
71814;SDS011;59659;41.520;23.794;2023-06-14T04:01:01;6.30;;;3.23;;
71814;SDS011;59659;41.520;23.794;2023-06-14T04:02:12;5.23;;;3.27;;
71814;SDS011;59659;41.520;23.794;2023-06-14T04:03:27;8.27;;;3.93;;
71814;SDS011;59659;41.520;23.794;2023-06-14T04:04:41;5.87;;;3.80;;
71814;SDS011;59659;41.520;23.794;2023-06-14T04:05:55;4.20;;;2.70;;
71814;SDS011;59659;41.520;23.794;2023-06-14T04:07:08;7.47;;;2.53;;
71814;SDS011;59659;41.520;23.794;2023-06-14T04:08:20;3.90;;;2.63;;
71814;SDS011;59659;41.520;23.794;2023-06-14T04:09:33;4.10;;;3.37;;
71814;SDS011;59659;41.520;23.794;2023-06-14T04:10:44;8.13;;;3.10;;
71814;SDS011;59659;41.520;23.794;2023-06-14T04:11:56;4.60;;;2.93;;
71814;SDS011;59659;41.520;23.794;2023-06-14T04:13:07;3.80;;;2.80;;
71814;SDS011;59659;41.520;23.794;2023-06-14T04:14:19;4.37;;;3.00;;
71814;SDS011;59659;41.520;23.794;2023-06-14T04:15:31;4.63;;;2.90;;
71814;SDS011;59659;41.520;23.794;2023-06-14T04:16:42;5.63;;;2.90;;
71814;SDS011;59659;41.520;23.794;2023-06-14T04:17:54;5.83;;;3.10;;
71814;SDS011;59659;41.520;23.794;2023-06-14T04:19:09;7.80;;;3.40;;
71814;SDS011;59659;41.520;23.794;2023-06-14T04:20:21;4.63;;;2.80;;
71814;SDS011;59659;41.520;23.794;2023-06-14T04:21:33;5.50;;;3.00;;
71814;SDS011;59659;41.520;23.794;2023-06-14T04:22:46;7.10;;;3.70;;
71814;SDS011;59659;41.520;23.794;2023-06-14T04:23:57;5.27;;;3.20;;
71814;SDS011;59659;41.520;23.794;2023-06-14T04:25:13;6.87;;;3.80;;
71814;SDS011;59659;41.520;23.794;2023-06-14T04:26:25;7.83;;;3.80;;
71814;SDS011;59659;41.520;23.794;2023-06-14T04:27:41;6.10;;;3.03;;
71814;SDS011;59659;41.520;23.794;2023-06-14T04:28:53;7.43;;;3.63;;
71814;SDS011;59659;41.520;23.794;2023-06-14T04:30:08;9.93;;;3.53;;
71814;SDS011;59659;41.520;23.794;2023-06-14T04:31:19;6.70;;;3.20;;
71814;SDS011;59659;41.520;23.794;2023-06-14T04:32:32;5.90;;;3.20;;
71814;SDS011;59659;41.520;23.794;2023-06-14T04:33:50;13.00;;;3.87;;
71814;SDS011;59659;41.520;23.794;2023-06-14T04:35:08;7.70;;;3.97;;
71814;SDS011;59659;41.520;23.794;2023-06-14T04:36:20;9.60;;;3.37;;
71814;SDS011;59659;41.520;23.794;2023-06-14T04:37:31;6.90;;;3.43;;
71814;SDS011;59659;41.520;23.794;2023-06-14T04:38:43;9.90;;;3.63;;
71814;SDS011;59659;41.520;23.794;2023-06-14T04:39:56;5.20;;;3.47;;
71814;SDS011;59659;41.520;23.794;2023-06-14T04:41:08;10.23;;;4.73;;
71814;SDS011;59659;41.520;23.794;2023-06-14T04:42:23;11.00;;;4.83;;
71814;SDS011;59659;41.520;23.794;2023-06-14T04:43:36;13.90;;;6.57;;
71814;SDS011;59659;41.520;23.794;2023-06-14T04:44:49;12.30;;;7.23;;
71814;SDS011;59659;41.520;23.794;2023-06-14T04:46:01;16.23;;;7.50;;
71814;SDS011;59659;41.520;23.794;2023-06-14T04:47:13;18.63;;;7.27;;
71814;SDS011;59659;41.520;23.794;2023-06-14T04:48:25;13.63;;;6.97;;
71814;SDS011;59659;41.520;23.794;2023-06-14T04:49:37;8.37;;;4.97;;
71814;SDS011;59659;41.520;23.794;2023-06-14T04:50:48;8.37;;;4.47;;
71814;SDS011;59659;41.520;23.794;2023-06-14T04:52:04;11.37;;;4.73;;
71814;SDS011;59659;41.520;23.794;2023-06-14T04:53:16;11.13;;;4.50;;
71814;SDS011;59659;41.520;23.794;2023-06-14T04:54:28;8.87;;;4.77;;
71814;SDS011;59659;41.520;23.794;2023-06-14T04:55:42;13.60;;;4.90;;
71814;SDS011;59659;41.520;23.794;2023-06-14T04:56:56;7.40;;;4.67;;
71814;SDS011;59659;41.520;23.794;2023-06-14T04:58:07;7.67;;;4.47;;
71814;SDS011;59659;41.520;23.794;2023-06-14T04:59:19;7.53;;;4.97;;
71814;SDS011;59659;41.520;23.794;2023-06-14T05:00:31;7.73;;;3.70;;
71814;SDS011;59659;41.520;23.794;2023-06-14T05:01:43;6.87;;;4.30;;
71814;SDS011;59659;41.520;23.794;2023-06-14T05:03:00;7.90;;;4.80;;
71814;SDS011;59659;41.520;23.794;2023-06-14T05:04:12;8.33;;;4.67;;
71814;SDS011;59659;41.520;23.794;2023-06-14T05:05:24;7.23;;;4.60;;
71814;SDS011;59659;41.520;23.794;2023-06-14T05:06:36;8.10;;;4.83;;
71814;SDS011;59659;41.520;23.794;2023-06-14T05:07:47;8.50;;;5.00;;
71814;SDS011;59659;41.520;23.794;2023-06-14T05:08:59;8.83;;;4.80;;
71814;SDS011;59659;41.520;23.794;2023-06-14T05:10:10;9.87;;;4.90;;
71814;SDS011;59659;41.520;23.794;2023-06-14T05:11:22;7.20;;;5.10;;
71814;SDS011;59659;41.520;23.794;2023-06-14T05:12:37;8.90;;;4.27;;
71814;SDS011;59659;41.520;23.794;2023-06-14T05:13:49;5.87;;;4.00;;
71814;SDS011;59659;41.520;23.794;2023-06-14T05:15:02;6.63;;;4.43;;
71814;SDS011;59659;41.520;23.794;2023-06-14T05:16:13;7.90;;;4.20;;
71814;SDS011;59659;41.520;23.794;2023-06-14T05:17:30;5.77;;;3.90;;
71814;SDS011;59659;41.520;23.794;2023-06-14T05:18:42;9.07;;;5.37;;
71814;SDS011;59659;41.520;23.794;2023-06-14T05:19:53;6.43;;;4.37;;
71814;SDS011;59659;41.520;23.794;2023-06-14T05:21:07;8.33;;;4.40;;
71814;SDS011;59659;41.520;23.794;2023-06-14T05:22:18;9.43;;;4.00;;
71814;SDS011;59659;41.520;23.794;2023-06-14T05:23:30;6.03;;;3.77;;
71814;SDS011;59659;41.520;23.794;2023-06-14T05:24:41;6.47;;;3.73;;
71814;SDS011;59659;41.520;23.794;2023-06-14T05:25:53;5.50;;;3.90;;
71814;SDS011;59659;41.520;23.794;2023-06-14T05:27:04;10.03;;;4.47;;
71814;SDS011;59659;41.520;23.794;2023-06-14T05:28:17;6.20;;;4.23;;
71814;SDS011;59659;41.520;23.794;2023-06-14T05:29:28;9.03;;;4.73;;
71814;SDS011;59659;41.520;23.794;2023-06-14T05:30:41;7.30;;;4.57;;
71814;SDS011;59659;41.520;23.794;2023-06-14T05:31:52;8.50;;;4.00;;
71814;SDS011;59659;41.520;23.794;2023-06-14T05:33:04;6.20;;;4.00;;
71814;SDS011;59659;41.520;23.794;2023-06-14T05:34:16;7.53;;;4.87;;
71814;SDS011;59659;41.520;23.794;2023-06-14T05:35:27;6.07;;;3.80;;
71814;SDS011;59659;41.520;23.794;2023-06-14T05:36:39;6.80;;;3.80;;
71814;SDS011;59659;41.520;23.794;2023-06-14T05:37:50;7.37;;;4.10;;
71814;SDS011;59659;41.520;23.794;2023-06-14T05:39:02;5.57;;;3.40;;
71814;SDS011;59659;41.520;23.794;2023-06-14T05:40:14;6.43;;;4.53;;
71814;SDS011;59659;41.520;23.794;2023-06-14T05:41:28;6.27;;;3.87;;
71814;SDS011;59659;41.520;23.794;2023-06-14T05:42:40;6.70;;;3.30;;
71814;SDS011;59659;41.520;23.794;2023-06-14T05:43:51;7.47;;;3.33;;
71814;SDS011;59659;41.520;23.794;2023-06-14T05:45:03;9.13;;;4.20;;
71814;SDS011;59659;41.520;23.794;2023-06-14T05:46:15;7.60;;;4.63;;
71814;SDS011;59659;41.520;23.794;2023-06-14T05:47:27;6.83;;;3.60;;
71814;SDS011;59659;41.520;23.794;2023-06-14T05:48:39;5.77;;;3.57;;
71814;SDS011;59659;41.520;23.794;2023-06-14T05:49:50;6.60;;;3.97;;
71814;SDS011;59659;41.520;23.794;2023-06-14T05:51:02;6.47;;;3.97;;
71814;SDS011;59659;41.520;23.794;2023-06-14T05:52:14;8.30;;;4.63;;
71814;SDS011;59659;41.520;23.794;2023-06-14T05:53:25;6.37;;;3.97;;
71814;SDS011;59659;41.520;23.794;2023-06-14T05:54:37;6.07;;;3.97;;
71814;SDS011;59659;41.520;23.794;2023-06-14T05:55:49;6.00;;;4.23;;
71814;SDS011;59659;41.520;23.794;2023-06-14T05:57:03;5.80;;;3.60;;
71814;SDS011;59659;41.520;23.794;2023-06-14T05:58:16;7.53;;;3.57;;
71814;SDS011;59659;41.520;23.794;2023-06-14T05:59:27;6.07;;;3.47;;
71814;SDS011;59659;41.520;23.794;2023-06-14T06:00:39;5.83;;;3.60;;
71814;SDS011;59659;41.520;23.794;2023-06-14T06:01:51;6.60;;;4.23;;
71814;SDS011;59659;41.520;23.794;2023-06-14T06:03:02;7.40;;;3.60;;
71814;SDS011;59659;41.520;23.794;2023-06-14T06:04:14;6.40;;;3.90;;
71814;SDS011;59659;41.520;23.794;2023-06-14T06:05:26;5.47;;;3.53;;
71814;SDS011;59659;41.520;23.794;2023-06-14T06:06:37;8.50;;;4.33;;
71814;SDS011;59659;41.520;23.794;2023-06-14T06:07:49;4.90;;;3.50;;
71814;SDS011;59659;41.520;23.794;2023-06-14T06:09:01;6.30;;;4.30;;
71814;SDS011;59659;41.520;23.794;2023-06-14T06:10:12;5.67;;;3.57;;
71814;SDS011;59659;41.520;23.794;2023-06-14T06:11:24;6.13;;;3.70;;
71814;SDS011;59659;41.520;23.794;2023-06-14T06:12:35;5.50;;;4.03;;
71814;SDS011;59659;41.520;23.794;2023-06-14T06:13:47;6.43;;;3.67;;
71814;SDS011;59659;41.520;23.794;2023-06-14T06:14:59;5.87;;;4.20;;
71814;SDS011;59659;41.520;23.794;2023-06-14T06:16:10;5.60;;;4.07;;
71814;SDS011;59659;41.520;23.794;2023-06-14T06:17:22;8.80;;;4.40;;
71814;SDS011;59659;41.520;23.794;2023-06-14T06:18:34;6.40;;;3.87;;
71814;SDS011;59659;41.520;23.794;2023-06-14T06:19:45;4.53;;;3.00;;
71814;SDS011;59659;41.520;23.794;2023-06-14T06:20:57;7.30;;;3.90;;
71814;SDS011;59659;41.520;23.794;2023-06-14T06:22:08;5.83;;;3.83;;
71814;SDS011;59659;41.520;23.794;2023-06-14T06:23:20;7.47;;;3.87;;
71814;SDS011;59659;41.520;23.794;2023-06-14T06:24:32;4.03;;;3.37;;
71814;SDS011;59659;41.520;23.794;2023-06-14T06:25:43;4.80;;;3.70;;
71814;SDS011;59659;41.520;23.794;2023-06-14T06:26:55;5.00;;;3.17;;
71814;SDS011;59659;41.520;23.794;2023-06-14T06:28:06;7.10;;;3.30;;
71814;SDS011;59659;41.520;23.794;2023-06-14T06:29:19;6.27;;;3.90;;
71814;SDS011;59659;41.520;23.794;2023-06-14T06:30:30;4.77;;;4.00;;
71814;SDS011;59659;41.520;23.794;2023-06-14T06:31:42;9.90;;;3.80;;
71814;SDS011;59659;41.520;23.794;2023-06-14T06:32:53;7.20;;;3.30;;
71814;SDS011;59659;41.520;23.794;2023-06-14T06:34:07;5.07;;;3.67;;
71814;SDS011;59659;41.520;23.794;2023-06-14T06:35:18;9.27;;;4.37;;
71814;SDS011;59659;41.520;23.794;2023-06-14T06:36:30;6.47;;;4.17;;
71814;SDS011;59659;41.520;23.794;2023-06-14T06:37:42;8.17;;;4.30;;
71814;SDS011;59659;41.520;23.794;2023-06-14T06:38:53;6.13;;;3.83;;
71814;SDS011;59659;41.520;23.794;2023-06-14T06:40:05;6.67;;;3.47;;
71814;SDS011;59659;41.520;23.794;2023-06-14T06:41:18;6.23;;;3.37;;
71814;SDS011;59659;41.520;23.794;2023-06-14T06:42:29;5.57;;;4.20;;
71814;SDS011;59659;41.520;23.794;2023-06-14T06:43:42;13.73;;;4.47;;
71814;SDS011;59659;41.520;23.794;2023-06-14T06:44:53;5.80;;;3.87;;
71814;SDS011;59659;41.520;23.794;2023-06-14T06:46:05;7.90;;;4.20;;
71814;SDS011;59659;41.520;23.794;2023-06-14T06:47:16;5.80;;;3.93;;
71814;SDS011;59659;41.520;23.794;2023-06-14T06:48:28;5.00;;;3.33;;
71814;SDS011;59659;41.520;23.794;2023-06-14T06:49:40;8.17;;;4.53;;
71814;SDS011;59659;41.520;23.794;2023-06-14T06:50:51;5.97;;;3.43;;
71814;SDS011;59659;41.520;23.794;2023-06-14T06:52:04;6.00;;;3.90;;
71814;SDS011;59659;41.520;23.794;2023-06-14T06:53:15;5.97;;;3.43;;
71814;SDS011;59659;41.520;23.794;2023-06-14T06:54:40;5.70;;;3.30;;
71814;SDS011;59659;41.520;23.794;2023-06-14T06:55:52;4.97;;;3.50;;
71814;SDS011;59659;41.520;23.794;2023-06-14T06:57:04;5.67;;;3.90;;
71814;SDS011;59659;41.520;23.794;2023-06-14T06:58:15;4.87;;;3.27;;
71814;SDS011;59659;41.520;23.794;2023-06-14T06:59:27;5.20;;;3.93;;
71814;SDS011;59659;41.520;23.794;2023-06-14T07:00:39;4.77;;;3.80;;
71814;SDS011;59659;41.520;23.794;2023-06-14T07:01:50;7.47;;;4.27;;
71814;SDS011;59659;41.520;23.794;2023-06-14T07:03:05;5.70;;;3.93;;
71814;SDS011;59659;41.520;23.794;2023-06-14T07:04:16;6.90;;;4.13;;
71814;SDS011;59659;41.520;23.794;2023-06-14T07:05:28;9.40;;;3.90;;
71814;SDS011;59659;41.520;23.794;2023-06-14T07:06:40;4.40;;;3.07;;
71814;SDS011;59659;41.520;23.794;2023-06-14T07:07:51;6.53;;;3.30;;
71814;SDS011;59659;41.520;23.794;2023-06-14T07:09:04;5.37;;;3.80;;
71814;SDS011;59659;41.520;23.794;2023-06-14T07:10:19;5.70;;;3.80;;
71814;SDS011;59659;41.520;23.794;2023-06-14T07:11:30;4.87;;;3.30;;